sensor_id;sensor_type;location;lat;lon;timestamp;temperature;humidity
68109;SHT30;54893;49.864;19.084;2023-06-22T00:01:20;17.33;98.48
68109;SHT30;54893;49.864;19.084;2023-06-22T00:06:22;17.33;98.43
68109;SHT30;54893;49.864;19.084;2023-06-22T00:11:22;17.39;98.03
68109;SHT30;54893;49.864;19.084;2023-06-22T00:16:23;17.39;98.15
68109;SHT30;54893;49.864;19.084;2023-06-22T00:21:23;17.41;97.87
68109;SHT30;54893;49.864;19.084;2023-06-22T00:26:24;17.46;95.72
68109;SHT30;54893;49.864;19.084;2023-06-22T00:31:24;17.60;95.14
68109;SHT30;54893;49.864;19.084;2023-06-22T00:36:25;17.60;96.75
68109;SHT30;54893;49.864;19.084;2023-06-22T00:41:25;17.70;95.29
68109;SHT30;54893;49.864;19.084;2023-06-22T00:46:28;17.70;95.41
68109;SHT30;54893;49.864;19.084;2023-06-22T00:51:29;17.81;95.69
68109;SHT30;54893;49.864;19.084;2023-06-22T00:56:30;17.81;95.89
68109;SHT30;54893;49.864;19.084;2023-06-22T01:01:30;17.81;96.45
68109;SHT30;54893;49.864;19.084;2023-06-22T01:06:35;17.85;96.38
68109;SHT30;54893;49.864;19.084;2023-06-22T01:11:42;17.81;96.22
68109;SHT30;54893;49.864;19.084;2023-06-22T01:16:47;17.83;96.43
68109;SHT30;54893;49.864;19.084;2023-06-22T01:21:49;17.97;95.86
68109;SHT30;54893;49.864;19.084;2023-06-22T01:27:09;18.05;95.97
68109;SHT30;54893;49.864;19.084;2023-06-22T01:32:14;18.05;96.97
68109;SHT30;54893;49.864;19.084;2023-06-22T01:37:15;17.98;96.21
68109;SHT30;54893;49.864;19.084;2023-06-22T01:42:16;17.93;96.78
68109;SHT30;54893;49.864;19.084;2023-06-22T01:47:17;17.93;96.96
68109;SHT30;54893;49.864;19.084;2023-06-22T01:52:18;17.95;95.88
68109;SHT30;54893;49.864;19.084;2023-06-22T01:57:21;17.88;96.50
68109;SHT30;54893;49.864;19.084;2023-06-22T02:02:21;17.87;96.28
68109;SHT30;54893;49.864;19.084;2023-06-22T02:07:31;17.73;96.67
68109;SHT30;54893;49.864;19.084;2023-06-22T02:12:33;17.80;95.41
68109;SHT30;54893;49.864;19.084;2023-06-22T02:17:35;17.85;95.49
68109;SHT30;54893;49.864;19.084;2023-06-22T02:22:35;17.97;95.00
68109;SHT30;54893;49.864;19.084;2023-06-22T02:27:36;17.93;95.38
68109;SHT30;54893;49.864;19.084;2023-06-22T02:32:36;17.95;95.37
68109;SHT30;54893;49.864;19.084;2023-06-22T02:37:37;17.90;95.67
68109;SHT30;54893;49.864;19.084;2023-06-22T02:42:41;17.85;96.53
68109;SHT30;54893;49.864;19.084;2023-06-22T02:47:42;17.88;95.70
68109;SHT30;54893;49.864;19.084;2023-06-22T02:52:42;17.83;95.63
68109;SHT30;54893;49.864;19.084;2023-06-22T02:57:43;17.83;95.63
68109;SHT30;54893;49.864;19.084;2023-06-22T03:02:45;17.80;95.76
68109;SHT30;54893;49.864;19.084;2023-06-22T03:07:46;17.87;95.88
68109;SHT30;54893;49.864;19.084;2023-06-22T03:12:47;17.87;95.65
68109;SHT30;54893;49.864;19.084;2023-06-22T03:17:47;17.91;95.84
68109;SHT30;54893;49.864;19.084;2023-06-22T03:22:47;18.00;95.62
68109;SHT30;54893;49.864;19.084;2023-06-22T03:27:48;18.07;95.48
68109;SHT30;54893;49.864;19.084;2023-06-22T03:32:49;18.09;95.90
68109;SHT30;54893;49.864;19.084;2023-06-22T03:37:49;18.24;95.89
68109;SHT30;54893;49.864;19.084;2023-06-22T03:42:50;18.34;95.12
68109;SHT30;54893;49.864;19.084;2023-06-22T03:47:50;18.44;94.89
68109;SHT30;54893;49.864;19.084;2023-06-22T03:52:51;18.61;95.09
68109;SHT30;54893;49.864;19.084;2023-06-22T03:57:52;18.71;94.69
68109;SHT30;54893;49.864;19.084;2023-06-22T04:02:54;18.85;94.18
68109;SHT30;54893;49.864;19.084;2023-06-22T04:07:54;18.96;94.33
68109;SHT30;54893;49.864;19.084;2023-06-22T04:12:55;19.20;94.28
68109;SHT30;54893;49.864;19.084;2023-06-22T04:17:55;19.51;93.30
68109;SHT30;54893;49.864;19.084;2023-06-22T04:22:56;19.95;93.23
68109;SHT30;54893;49.864;19.084;2023-06-22T04:27:57;20.32;91.68
68109;SHT30;54893;49.864;19.084;2023-06-22T04:32:57;20.56;91.08
68109;SHT30;54893;49.864;19.084;2023-06-22T04:37:58;20.92;90.36
68109;SHT30;54893;49.864;19.084;2023-06-22T04:42:58;21.18;89.84
68109;SHT30;54893;49.864;19.084;2023-06-22T04:48:02;21.46;89.28
68109;SHT30;54893;49.864;19.084;2023-06-22T04:53:02;21.66;88.71
68109;SHT30;54893;49.864;19.084;2023-06-22T04:58:05;21.94;88.11
68109;SHT30;54893;49.864;19.084;2023-06-22T05:03:05;22.14;87.41
68109;SHT30;54893;49.864;19.084;2023-06-22T05:08:06;22.40;86.93
68109;SHT30;54893;49.864;19.084;2023-06-22T05:13:07;22.71;86.59
68109;SHT30;54893;49.864;19.084;2023-06-22T05:18:07;22.86;86.21
68109;SHT30;54893;49.864;19.084;2023-06-22T05:23:08;22.99;85.66
68109;SHT30;54893;49.864;19.084;2023-06-22T05:28:08;23.27;84.59
68109;SHT30;54893;49.864;19.084;2023-06-22T05:33:11;23.62;84.52
68109;SHT30;54893;49.864;19.084;2023-06-22T05:38:11;23.81;84.18
68109;SHT30;54893;49.864;19.084;2023-06-22T05:43:12;23.81;82.77
68109;SHT30;54893;49.864;19.084;2023-06-22T05:48:12;23.76;82.80
68109;SHT30;54893;49.864;19.084;2023-06-22T05:53:12;23.71;82.85
68109;SHT30;54893;49.864;19.084;2023-06-22T05:58:13;23.47;83.78
68109;SHT30;54893;49.864;19.084;2023-06-22T06:03:13;23.83;83.02
68109;SHT30;54893;49.864;19.084;2023-06-22T06:08:17;23.98;82.19
68109;SHT30;54893;49.864;19.084;2023-06-22T06:13:17;24.10;81.95
68109;SHT30;54893;49.864;19.084;2023-06-22T06:18:17;24.42;81.25
68109;SHT30;54893;49.864;19.084;2023-06-22T06:23:18;24.78;80.90
68109;SHT30;54893;49.864;19.084;2023-06-22T06:28:18;24.58;81.54
68109;SHT30;54893;49.864;19.084;2023-06-22T06:33:19;24.85;80.82
68109;SHT30;54893;49.864;19.084;2023-06-22T06:38:21;24.86;81.49
68109;SHT30;54893;49.864;19.084;2023-06-22T06:43:21;25.28;80.15
68109;SHT30;54893;49.864;19.084;2023-06-22T06:48:22;24.55;80.67
68109;SHT30;54893;49.864;19.084;2023-06-22T06:53:23;24.74;82.32
68109;SHT30;54893;49.864;19.084;2023-06-22T06:58:23;25.40;80.36
68109;SHT30;54893;49.864;19.084;2023-06-22T07:03:24;25.15;80.90
68109;SHT30;54893;49.864;19.084;2023-06-22T07:08:24;25.97;79.02
68109;SHT30;54893;49.864;19.084;2023-06-22T07:13:25;26.23;78.68
68109;SHT30;54893;49.864;19.084;2023-06-22T07:18:25;26.18;78.93
68109;SHT30;54893;49.864;19.084;2023-06-22T07:23:26;25.70;79.79
68109;SHT30;54893;49.864;19.084;2023-06-22T07:28:27;24.99;80.83
68109;SHT30;54893;49.864;19.084;2023-06-22T07:33:27;24.79;81.47
68109;SHT30;54893;49.864;19.084;2023-06-22T07:38:28;25.72;79.20
68109;SHT30;54893;49.864;19.084;2023-06-22T07:43:28;25.45;79.48
68109;SHT30;54893;49.864;19.084;2023-06-22T07:48:30;25.43;79.81
68109;SHT30;54893;49.864;19.084;2023-06-22T07:53:30;25.33;80.51
68109;SHT30;54893;49.864;19.084;2023-06-22T07:58:31;26.16;77.06
68109;SHT30;54893;49.864;19.084;2023-06-22T08:03:32;26.94;76.50
68109;SHT30;54893;49.864;19.084;2023-06-22T08:08:32;25.52;79.18
68109;SHT30;54893;49.864;19.084;2023-06-22T08:13:33;25.70;79.52
68109;SHT30;54893;49.864;19.084;2023-06-22T08:18:33;26.20;78.17
68109;SHT30;54893;49.864;19.084;2023-06-22T08:23:34;26.52;76.98
68109;SHT30;54893;49.864;19.084;2023-06-22T08:28:35;26.52;77.33
68109;SHT30;54893;49.864;19.084;2023-06-22T08:33:35;27.18;75.69
68109;SHT30;54893;49.864;19.084;2023-06-22T08:38:35;27.65;74.82
68109;SHT30;54893;49.864;19.084;2023-06-22T08:43:36;27.29;74.95
68109;SHT30;54893;49.864;19.084;2023-06-22T08:48:36;26.77;75.80
68109;SHT30;54893;49.864;19.084;2023-06-22T08:53:36;26.78;74.62
68109;SHT30;54893;49.864;19.084;2023-06-22T08:58:37;27.92;72.14
68109;SHT30;54893;49.864;19.084;2023-06-22T09:03:37;28.91;69.78
68109;SHT30;54893;49.864;19.084;2023-06-22T09:08:38;29.44;69.55
68109;SHT30;54893;49.864;19.084;2023-06-22T09:13:38;28.57;70.57
68109;SHT30;54893;49.864;19.084;2023-06-22T09:18:38;27.38;73.13
68109;SHT30;54893;49.864;19.084;2023-06-22T09:23:39;27.90;71.41
68109;SHT30;54893;49.864;19.084;2023-06-22T09:28:39;28.56;70.16
68109;SHT30;54893;49.864;19.084;2023-06-22T09:33:40;29.44;65.97
68109;SHT30;54893;49.864;19.084;2023-06-22T09:38:40;29.96;67.42
68109;SHT30;54893;49.864;19.084;2023-06-22T09:43:41;30.13;67.25
68109;SHT30;54893;49.864;19.084;2023-06-22T09:48:41;28.32;68.62
68109;SHT30;54893;49.864;19.084;2023-06-22T09:53:42;28.41;69.18
68109;SHT30;54893;49.864;19.084;2023-06-22T11:38:53;30.34;62.34
68109;SHT30;54893;49.864;19.084;2023-06-22T11:43:53;30.60;64.02
68109;SHT30;54893;49.864;19.084;2023-06-22T11:48:53;31.11;62.02
68109;SHT30;54893;49.864;19.084;2023-06-22T11:53:54;30.74;62.60
68109;SHT30;54893;49.864;19.084;2023-06-22T11:58:54;30.61;62.52
68109;SHT30;54893;49.864;19.084;2023-06-22T12:03:55;30.39;61.86
68109;SHT30;54893;49.864;19.084;2023-06-22T12:08:55;30.24;62.44
68109;SHT30;54893;49.864;19.084;2023-06-22T12:13:55;30.37;60.72
68109;SHT30;54893;49.864;19.084;2023-06-22T12:18:56;30.77;60.85
68109;SHT30;54893;49.864;19.084;2023-06-22T12:23:56;31.79;59.63
68109;SHT30;54893;49.864;19.084;2023-06-22T12:28:56;31.17;59.20
68109;SHT30;54893;49.864;19.084;2023-06-22T12:33:57;31.21;58.48
68109;SHT30;54893;49.864;19.084;2023-06-22T12:38:57;31.19;57.29
68109;SHT30;54893;49.864;19.084;2023-06-22T12:43:58;31.78;58.71
68109;SHT30;54893;49.864;19.084;2023-06-22T12:48:58;31.51;58.54
68109;SHT30;54893;49.864;19.084;2023-06-22T12:54:01;31.12;58.28
68109;SHT30;54893;49.864;19.084;2023-06-22T12:59:01;31.34;56.83
68109;SHT30;54893;49.864;19.084;2023-06-22T13:04:02;31.22;57.42
68109;SHT30;54893;49.864;19.084;2023-06-22T13:09:02;30.56;60.14
68109;SHT30;54893;49.864;19.084;2023-06-22T13:14:05;30.64;60.01
68109;SHT30;54893;49.864;19.084;2023-06-22T13:19:05;32.40;58.06
68109;SHT30;54893;49.864;19.084;2023-06-22T13:24:06;31.85;57.47
68109;SHT30;54893;49.864;19.084;2023-06-22T13:29:06;31.21;59.13
68109;SHT30;54893;49.864;19.084;2023-06-22T13:34:07;31.85;58.49
68109;SHT30;54893;49.864;19.084;2023-06-22T13:39:07;30.73;58.06
68109;SHT30;54893;49.864;19.084;2023-06-22T13:44:07;31.68;57.74
68109;SHT30;54893;49.864;19.084;2023-06-22T13:49:08;32.23;56.44
68109;SHT30;54893;49.864;19.084;2023-06-22T13:54:08;31.59;56.52
68109;SHT30;54893;49.864;19.084;2023-06-22T13:59:08;32.76;55.11
68109;SHT30;54893;49.864;19.084;2023-06-22T14:04:10;32.32;55.41
68109;SHT30;54893;49.864;19.084;2023-06-22T14:09:11;35.03;51.05
68109;SHT30;54893;49.864;19.084;2023-06-22T14:14:11;37.52;46.91
68109;SHT30;54893;49.864;19.084;2023-06-22T14:19:12;37.32;45.31
68109;SHT30;54893;49.864;19.084;2023-06-22T14:24:12;39.92;44.46
68109;SHT30;54893;49.864;19.084;2023-06-22T14:29:13;41.34;44.04
68109;SHT30;54893;49.864;19.084;2023-06-22T14:34:14;42.13;43.17
68109;SHT30;54893;49.864;19.084;2023-06-22T14:39:14;39.53;44.26
68109;SHT30;54893;49.864;19.084;2023-06-22T14:44:15;38.30;46.07
68109;SHT30;54893;49.864;19.084;2023-06-22T14:49:15;39.01;45.22
68109;SHT30;54893;49.864;19.084;2023-06-22T14:54:16;37.05;47.33
68109;SHT30;54893;49.864;19.084;2023-06-22T14:59:16;39.63;43.22
68109;SHT30;54893;49.864;19.084;2023-06-22T15:04:16;39.77;41.77
68109;SHT30;54893;49.864;19.084;2023-06-22T15:09:17;41.11;41.75
68109;SHT30;54893;49.864;19.084;2023-06-22T15:14:17;37.90;45.04
68109;SHT30;54893;49.864;19.084;2023-06-22T15:19:18;41.08;42.38
68109;SHT30;54893;49.864;19.084;2023-06-22T15:24:18;39.31;42.03
68109;SHT30;54893;49.864;19.084;2023-06-22T15:29:19;38.31;44.46
68109;SHT30;54893;49.864;19.084;2023-06-22T15:34:19;40.19;41.49
68109;SHT30;54893;49.864;19.084;2023-06-22T15:39:20;39.88;41.47
68109;SHT30;54893;49.864;19.084;2023-06-22T15:44:21;40.71;39.72
68109;SHT30;54893;49.864;19.084;2023-06-22T15:49:21;40.76;39.43
68109;SHT30;54893;49.864;19.084;2023-06-22T15:54:22;40.40;39.12
68109;SHT30;54893;49.864;19.084;2023-06-22T15:59:22;38.97;41.86
68109;SHT30;54893;49.864;19.084;2023-06-22T16:04:23;40.20;41.38
68109;SHT30;54893;49.864;19.084;2023-06-22T16:09:25;40.70;40.02
68109;SHT30;54893;49.864;19.084;2023-06-22T16:14:25;38.60;42.66
68109;SHT30;54893;49.864;19.084;2023-06-22T16:19:25;39.25;42.79
68109;SHT30;54893;49.864;19.084;2023-06-22T16:24:26;40.39;40.83
68109;SHT30;54893;49.864;19.084;2023-06-22T16:29:26;39.88;42.44
68109;SHT30;54893;49.864;19.084;2023-06-22T16:34:27;39.22;42.70
68109;SHT30;54893;49.864;19.084;2023-06-22T16:39:27;39.23;44.05
68109;SHT30;54893;49.864;19.084;2023-06-22T16:44:27;38.30;44.54
68109;SHT30;54893;49.864;19.084;2023-06-22T16:49:28;37.57;44.09
68109;SHT30;54893;49.864;19.084;2023-06-22T16:54:29;37.93;45.49
68109;SHT30;54893;49.864;19.084;2023-06-22T16:59:30;35.27;48.42
68109;SHT30;54893;49.864;19.084;2023-06-22T17:04:33;35.58;47.73
68109;SHT30;54893;49.864;19.084;2023-06-22T17:09:34;35.31;47.45
68109;SHT30;54893;49.864;19.084;2023-06-22T17:14:38;35.94;47.12
68109;SHT30;54893;49.864;19.084;2023-06-22T17:19:40;35.55;48.52
68109;SHT30;54893;49.864;19.084;2023-06-22T17:24:40;35.53;49.17
68109;SHT30;54893;49.864;19.084;2023-06-22T17:29:41;35.69;48.81
68109;SHT30;54893;49.864;19.084;2023-06-22T17:34:42;34.86;49.45
68109;SHT30;54893;49.864;19.084;2023-06-22T17:39:51;34.35;50.68
68109;SHT30;54893;49.864;19.084;2023-06-22T17:44:59;34.18;51.16
68109;SHT30;54893;49.864;19.084;2023-06-22T17:50:04;33.55;52.63
68109;SHT30;54893;49.864;19.084;2023-06-22T17:55:05;33.07;54.20
68109;SHT30;54893;49.864;19.084;2023-06-22T18:00:08;32.44;55.16
68109;SHT30;54893;49.864;19.084;2023-06-22T18:05:10;31.37;57.25
68109;SHT30;54893;49.864;19.084;2023-06-22T18:10:10;30.64;59.74
68109;SHT30;54893;49.864;19.084;2023-06-22T18:15:12;29.89;61.05
68109;SHT30;54893;49.864;19.084;2023-06-22T18:20:12;28.67;63.75
68109;SHT30;54893;49.864;19.084;2023-06-22T18:25:13;27.90;64.77
68109;SHT30;54893;49.864;19.084;2023-06-22T18:30:16;27.12;65.93
68109;SHT30;54893;49.864;19.084;2023-06-22T18:35:16;26.45;66.00
68109;SHT30;54893;49.864;19.084;2023-06-22T18:40:17;26.01;67.39
68109;SHT30;54893;49.864;19.084;2023-06-22T18:45:29;26.00;66.89
68109;SHT30;54893;49.864;19.084;2023-06-22T18:50:44;26.01;67.05
68109;SHT30;54893;49.864;19.084;2023-06-22T18:55:49;25.60;67.19
68109;SHT30;54893;49.864;19.084;2023-06-22T19:00:51;25.40;68.48
68109;SHT30;54893;49.864;19.084;2023-06-22T19:05:52;25.09;69.09
68109;SHT30;54893;49.864;19.084;2023-06-22T19:10:53;24.81;71.20
68109;SHT30;54893;49.864;19.084;2023-06-22T19:15:58;24.61;70.73
68109;SHT30;54893;49.864;19.084;2023-06-22T19:21:02;24.48;71.81
68109;SHT30;54893;49.864;19.084;2023-06-22T19:26:06;24.28;72.16
68109;SHT30;54893;49.864;19.084;2023-06-22T19:31:08;24.03;72.68
68109;SHT30;54893;49.864;19.084;2023-06-22T19:36:09;23.96;73.07
68109;SHT30;54893;49.864;19.084;2023-06-22T19:41:10;23.80;73.93
68109;SHT30;54893;49.864;19.084;2023-06-22T19:46:10;23.69;74.01
68109;SHT30;54893;49.864;19.084;2023-06-22T19:51:12;23.49;74.47
68109;SHT30;54893;49.864;19.084;2023-06-22T19:56:12;23.46;74.57
68109;SHT30;54893;49.864;19.084;2023-06-22T20:01:12;23.38;75.10
68109;SHT30;54893;49.864;19.084;2023-06-22T20:06:15;23.19;75.44
68109;SHT30;54893;49.864;19.084;2023-06-22T20:11:29;23.18;77.12
68109;SHT30;54893;49.864;19.084;2023-06-22T20:16:31;22.95;76.40
68109;SHT30;54893;49.864;19.084;2023-06-22T20:21:32;22.92;76.95
68109;SHT30;54893;49.864;19.084;2023-06-22T20:31:39;22.42;79.51
68109;SHT30;54893;49.864;19.084;2023-06-22T20:36:41;22.28;80.26
68109;SHT30;54893;49.864;19.084;2023-06-22T20:41:41;22.25;79.12
68109;SHT30;54893;49.864;19.084;2023-06-22T20:46:42;22.21;79.01
68109;SHT30;54893;49.864;19.084;2023-06-22T20:51:46;22.21;79.67
68109;SHT30;54893;49.864;19.084;2023-06-22T20:56:46;22.17;79.03
68109;SHT30;54893;49.864;19.084;2023-06-22T21:01:46;22.12;78.92
68109;SHT30;54893;49.864;19.084;2023-06-22T21:06:47;22.17;78.78
68109;SHT30;54893;49.864;19.084;2023-06-22T21:11:47;22.17;78.05
68109;SHT30;54893;49.864;19.084;2023-06-22T21:16:48;21.94;80.54
68109;SHT30;54893;49.864;19.084;2023-06-22T21:21:48;21.84;81.99
68109;SHT30;54893;49.864;19.084;2023-06-22T21:26:48;21.81;79.75
68109;SHT30;54893;49.864;19.084;2023-06-22T21:31:49;21.83;79.39
68109;SHT30;54893;49.864;19.084;2023-06-22T21:36:49;21.81;80.07
68109;SHT30;54893;49.864;19.084;2023-06-22T21:41:50;21.73;81.44
68109;SHT30;54893;49.864;19.084;2023-06-22T21:46:50;21.67;81.10
68109;SHT30;54893;49.864;19.084;2023-06-22T21:51:50;21.63;81.46
68109;SHT30;54893;49.864;19.084;2023-06-22T21:56:51;21.53;81.94
68109;SHT30;54893;49.864;19.084;2023-06-22T22:01:51;21.44;83.34
68109;SHT30;54893;49.864;19.084;2023-06-22T22:06:52;21.34;82.74
68109;SHT30;54893;49.864;19.084;2023-06-22T22:11:53;21.30;82.00
68109;SHT30;54893;49.864;19.084;2023-06-22T22:16:54;21.27;81.35
68109;SHT30;54893;49.864;19.084;2023-06-22T22:21:54;21.24;86.24
68109;SHT30;54893;49.864;19.084;2023-06-22T22:26:55;21.07;84.93
68109;SHT30;54893;49.864;19.084;2023-06-22T22:31:55;20.99;85.43
68109;SHT30;54893;49.864;19.084;2023-06-22T22:36:56;20.96;83.88
68109;SHT30;54893;49.864;19.084;2023-06-22T22:41:56;20.93;85.42
68109;SHT30;54893;49.864;19.084;2023-06-22T22:46:58;20.86;84.63
68109;SHT30;54893;49.864;19.084;2023-06-22T22:51:58;20.88;84.55
68109;SHT30;54893;49.864;19.084;2023-06-22T22:56:58;20.96;84.05
68109;SHT30;54893;49.864;19.084;2023-06-22T23:01:59;21.03;83.86
68109;SHT30;54893;49.864;19.084;2023-06-22T23:06:59;21.16;84.35
68109;SHT30;54893;49.864;19.084;2023-06-22T23:12:00;21.19;83.82
68109;SHT30;54893;49.864;19.084;2023-06-22T23:17:00;21.14;83.57
68109;SHT30;54893;49.864;19.084;2023-06-22T23:22:00;20.99;85.26
68109;SHT30;54893;49.864;19.084;2023-06-22T23:27:01;20.83;86.13
68109;SHT30;54893;49.864;19.084;2023-06-22T23:32:01;20.72;86.34
68109;SHT30;54893;49.864;19.084;2023-06-22T23:37:02;20.64;86.49
68109;SHT30;54893;49.864;19.084;2023-06-22T23:42:03;20.48;86.53
68109;SHT30;54893;49.864;19.084;2023-06-22T23:47:05;20.35;86.64
68109;SHT30;54893;49.864;19.084;2023-06-22T23:52:05;20.22;88.42
68109;SHT30;54893;49.864;19.084;2023-06-22T23:57:06;20.14;88.14
